Time;durP1;ratioP1;P1;durP2;ratioP2;P2;SDS_P1;SDS_P2;PMS_P1;PMS_P2;Temp;Humidity;BMP_temperature;BMP_pressure;BME280_temperature;BME280_humidity;BME280_pressure;Samples;Min_cycle;Max_cycle;Signal;HPM_P1;HPM_P2
2024/03/19 00:01:35;;;;;;;2.40;1.70;;;;;;;4.81;100.00;98611.63;15298782;19;20021;-73
2024/03/19 00:06:59;;;;;;;2.63;2.00;;;;;;;4.79;100.00;98614.41;15287122;19;20639;-73
2024/03/19 00:12:24;;;;;;;3.28;2.00;;;;;;;4.81;100.00;98614.28;15296907;19;20074;-73
2024/03/19 00:17:52;;;;;;;2.58;2.00;;;;;;;4.80;100.00;98607.25;15034403;19;5001828;-73
2024/03/19 00:23:15;;;;;;;2.95;2.00;;;;;;;4.78;100.00;98602.00;15033276;19;5001401;-73
2024/03/19 00:28:39;;;;;;;4.13;1.98;;;;;;;4.80;100.00;98607.25;15287592;19;20019;-73
2024/03/19 00:34:08;;;;;;;4.00;1.70;;;;;;;4.80;100.00;98601.91;15296689;19;20469;-73
2024/03/19 00:39:33;;;;;;;3.53;2.00;;;;;;;4.80;100.00;98597.41;15293350;19;20017;-73
2024/03/19 00:44:58;;;;;;;1.85;1.58;;;;;;;4.75;100.00;98597.78;15286781;19;20032;-73
2024/03/19 00:50:25;;;;;;;2.17;1.70;;;;;;;4.69;100.00;98600.06;15291892;19;20508;-73
2024/03/19 00:55:48;;;;;;;2.45;1.75;;;;;;;4.62;100.00;98599.69;15285157;19;20030;-73
2024/03/19 01:01:13;;;;;;;3.72;1.90;;;;;;;4.56;100.00;98590.34;15292625;19;20502;-73
2024/03/19 01:06:40;;;;;;;4.00;1.98;;;;;;;4.53;100.00;98584.41;15291656;19;20022;-73
2024/03/19 01:12:04;;;;;;;3.17;1.77;;;;;;;4.48;100.00;98585.59;15291001;19;20082;-73
2024/03/19 01:17:27;;;;;;;3.45;1.90;;;;;;;4.42;100.00;98593.22;15285927;19;20049;-73
2024/03/19 01:22:54;;;;;;;2.45;1.88;;;;;;;4.40;100.00;98611.19;15290532;19;20018;-73
2024/03/19 01:28:18;;;;;;;3.38;1.70;;;;;;;4.36;100.00;98612.38;15282943;19;20017;-73
2024/03/19 01:33:41;;;;;;;4.53;1.80;;;;;;;4.32;100.00;98617.94;15291819;19;20472;-72
2024/03/19 01:39:09;;;;;;;2.00;1.50;;;;;;;4.32;100.00;98620.59;15284766;19;20010;-72
2024/03/19 01:44:33;;;;;;;4.30;1.88;;;;;;;4.30;100.00;98611.03;15284307;19;20575;-73
2024/03/19 01:50:00;;;;;;;3.30;1.65;;;;;;;4.28;100.00;98612.97;15286098;19;20018;-72
2024/03/19 01:55:27;;;;;;;2.17;1.70;;;;;;;4.23;100.00;98610.66;15287392;19;20010;-72
2024/03/19 02:00:51;;;;;;;3.20;1.90;;;;;;;4.19;100.00;98609.16;15289487;19;20010;-71
2024/03/19 02:06:14;;;;;;;2.20;1.90;;;;;;;4.10;100.00;98601.88;15280007;19;20626;-71
2024/03/19 02:11:40;;;;;;;2.30;1.67;;;;;;;4.04;100.00;98602.34;15289090;19;20017;-71
2024/03/19 02:17:04;;;;;;;3.58;1.67;;;;;;;3.96;100.00;98603.75;15283792;19;20049;-71
2024/03/19 02:22:37;;;;;;;3.03;1.83;;;;;;;3.84;100.00;98596.66;15287338;19;20078;-71
2024/03/19 02:28:01;;;;;;;2.50;1.80;;;;;;;3.79;100.00;98610.34;15285846;19;20007;-71
2024/03/19 02:33:24;;;;;;;4.72;2.10;;;;;;;3.76;100.00;98599.06;15289652;19;20369;-71
2024/03/19 02:38:51;;;;;;;5.15;1.80;;;;;;;3.70;100.00;98589.72;15286930;19;20010;-71
2024/03/19 02:44:16;;;;;;;3.05;2.00;;;;;;;3.65;100.00;98595.38;15043286;19;5000718;-71
2024/03/19 02:49:41;;;;;;;2.78;1.80;;;;;;;3.64;100.00;98607.00;15288102;19;20508;-71
2024/03/19 02:55:16;;;;;;;3.05;1.60;;;;;;;3.59;100.00;98603.81;15289269;19;20018;-72
2024/03/19 03:00:40;;;;;;;3.33;1.60;;;;;;;3.57;100.00;98599.56;15308432;19;20475;-72
2024/03/19 03:06:04;;;;;;;2.13;1.70;;;;;;;3.52;100.00;98598.09;15297611;19;20503;-79
2024/03/19 03:11:30;;;;;;;3.00;1.60;;;;;;;3.45;100.00;98604.00;15328024;19;20058;-79
2024/03/19 03:16:54;;;;;;;2.80;1.60;;;;;;;3.36;100.00;98611.66;15313740;19;20027;-79
2024/03/19 03:22:18;;;;;;;1.70;1.52;;;;;;;3.31;100.00;98613.81;15312973;19;20022;-80
2024/03/19 03:27:44;;;;;;;2.15;1.67;;;;;;;3.28;100.00;98618.53;15297409;19;20039;-79
2024/03/19 03:33:08;;;;;;;2.67;1.60;;;;;;;3.27;100.00;98619.50;15307245;19;20007;-82
2024/03/19 03:38:32;;;;;;;4.22;1.88;;;;;;;3.26;100.00;98613.28;15302552;19;20489;-82
2024/03/19 03:43:58;;;;;;;2.40;1.83;;;;;;;3.26;100.00;98618.63;15299754;19;20465;-83
2024/03/19 03:49:22;;;;;;;2.55;1.80;;;;;;;3.23;100.00;98616.19;15304251;19;20018;-83
2024/03/19 03:54:53;;;;;;;3.67;1.95;;;;;;;3.18;100.00;98618.31;15300375;19;20013;-82
2024/03/19 04:00:20;;;;;;;2.65;1.77;;;;;;;3.12;100.00;98622.28;15306501;19;20021;-83
2024/03/19 04:05:44;;;;;;;3.72;1.70;;;;;;;3.06;100.00;98620.91;15296136;19;20045;-83
2024/03/19 04:11:09;;;;;;;3.88;1.80;;;;;;;3.00;100.00;98625.81;15301728;19;20014;-83
2024/03/19 04:16:36;;;;;;;2.10;1.80;;;;;;;2.91;100.00;98621.97;15300022;19;20014;-81
2024/03/19 04:22:00;;;;;;;5.35;1.90;;;;;;;2.83;100.00;98622.50;15307323;19;20019;-83
2024/03/19 04:27:23;;;;;;;4.05;1.90;;;;;;;2.76;100.00;98629.22;15311208;19;20045;-82
2024/03/19 04:32:49;;;;;;;3.05;2.10;;;;;;;2.67;100.00;98627.22;15303923;19;20013;-82
2024/03/19 04:38:22;;;;;;;5.28;2.00;;;;;;;2.53;100.00;98620.19;15322339;19;20014;-80
2024/03/19 04:43:46;;;;;;;2.45;2.00;;;;;;;2.41;100.00;98624.53;15346617;19;20484;-82
2024/03/19 04:49:12;;;;;;;3.78;2.15;;;;;;;2.30;100.00;98622.59;15289419;19;20085;-82
2024/03/19 04:54:42;;;;;;;3.72;1.98;;;;;;;2.22;100.00;98627.56;15288750;19;20021;-82
2024/03/19 05:00:10;;;;;;;2.67;2.00;;;;;;;2.11;100.00;98633.63;15295164;19;20028;-82
2024/03/19 05:05:36;;;;;;;3.38;2.20;;;;;;;2.04;100.00;98633.19;15290493;19;20031;-84
2024/03/19 05:11:01;;;;;;;4.82;2.22;;;;;;;1.97;100.00;98635.41;15292774;19;20493;-85
2024/03/19 05:16:25;;;;;;;3.55;2.38;;;;;;;1.92;100.00;98636.66;15286467;19;20019;-83
2024/03/19 05:21:51;;;;;;;4.05;2.28;;;;;;;1.84;100.00;98643.31;15293855;19;20075;-82
2024/03/19 05:27:15;;;;;;;6.15;2.30;;;;;;;1.82;100.00;98653.16;15299520;19;20022;-81
2024/03/19 05:32:39;;;;;;;2.60;2.20;;;;;;;1.80;100.00;98656.88;15296481;19;20035;-81
2024/03/19 05:38:05;;;;;;;4.53;2.40;;;;;;;1.75;100.00;98665.16;15291994;19;20034;-81
2024/03/19 05:43:33;;;;;;;3.45;2.25;;;;;;;1.66;100.00;98665.75;15302499;19;20361;-82
2024/03/19 05:48:50;;;;;;;3.97;2.60;;;;;;;1.63;100.00;98671.25;15292735;19;20363;-80
2024/03/19 05:54:23;;;;;;;5.22;2.78;;;;;;;1.59;100.00;98675.91;15302362;19;20019;-82
2024/03/19 05:59:47;;;;;;;2.33;1.88;;;;;;;1.53;100.00;98677.16;15294928;19;20704;-80
2024/03/19 06:05:10;;;;;;;3.75;2.55;;;;;;;1.53;100.00;98681.59;15304984;19;20034;-81
2024/03/19 06:10:36;;;;;;;5.28;2.60;;;;;;;1.54;100.00;98673.56;15298992;19;20139;-80
2024/03/19 06:16:05;;;;;;;4.03;2.53;;;;;;;1.61;100.00;98673.16;15293287;19;20050;-83
2024/03/19 06:21:29;;;;;;;3.50;2.60;;;;;;;1.69;100.00;98676.19;15298207;19;20010;-81
2024/03/19 06:26:55;;;;;;;4.00;2.40;;;;;;;1.79;100.00;98676.44;15302403;19;20015;-82
2024/03/19 06:32:20;;;;;;;3.90;2.45;;;;;;;1.88;100.00;98685.63;15325432;19;20038;-80
2024/03/19 06:37:44;;;;;;;5.55;2.92;;;;;;;1.96;100.00;98686.81;15322150;19;20014;-82
2024/03/19 06:43:10;;;;;;;3.88;2.83;;;;;;;2.06;100.00;98687.06;15329550;19;20031;-83
2024/03/19 06:48:34;;;;;;;3.33;2.70;;;;;;;2.17;100.00;98702.31;15357640;19;20010;-81
2024/03/19 06:54:05;;;;;;;3.35;2.47;;;;;;;2.29;100.00;98696.19;15328423;19;20035;-82
2024/03/19 06:59:32;;;;;;;3.65;3.10;;;;;;;2.44;100.00;98704.09;15310011;19;20022;-82
2024/03/19 07:04:57;;;;;;;3.25;2.95;;;;;;;2.59;100.00;98715.50;15307039;19;20774;-83
2024/03/19 07:10:21;;;;;;;7.15;3.40;;;;;;;2.75;100.00;98710.88;15305605;19;20022;-83
2024/03/19 07:15:48;;;;;;;3.78;3.33;;;;;;;2.93;100.00;98715.88;15311429;19;20019;-83
2024/03/19 07:21:12;;;;;;;4.88;3.33;;;;;;;3.09;100.00;98715.66;15313059;19;20018;-84
2024/03/19 07:26:36;;;;;;;3.95;3.20;;;;;;;3.26;100.00;98713.63;15308258;19;20099;-84
2024/03/19 07:32:03;;;;;;;3.92;3.00;;;;;;;3.43;100.00;98713.28;15347978;19;20007;-87
2024/03/19 07:37:27;;;;;;;6.72;3.35;;;;;;;3.65;100.00;98701.97;15312358;19;20105;-85
2024/03/19 07:42:52;;;;;;;4.20;2.95;;;;;;;3.84;100.00;98708.59;15310107;19;20014;-80
2024/03/19 07:48:20;;;;;;;4.55;3.03;;;;;;;4.04;100.00;98712.50;15297370;19;20017;-81
2024/03/19 07:53:51;;;;;;;4.25;3.03;;;;;;;4.25;100.00;98719.88;15304157;19;20494;-80
2024/03/19 07:59:15;;;;;;;2.65;2.45;;;;;;;4.53;100.00;98724.00;15305636;19;20082;-80
2024/03/19 08:04:41;;;;;;;2.45;2.25;;;;;;;4.92;100.00;98718.44;15300251;19;20022;-80
2024/03/19 08:10:05;;;;;;;3.35;2.00;;;;;;;5.20;100.00;98717.13;15302603;19;20387;-81
2024/03/19 08:15:30;;;;;;;2.20;2.00;;;;;;;5.38;100.00;98724.66;15293964;19;20361;-80
2024/03/19 08:20:57;;;;;;;2.63;1.80;;;;;;;5.63;100.00;98728.94;15298745;19;20050;-79
2024/03/19 08:26:21;;;;;;;1.67;1.58;;;;;;;5.92;100.00;98727.56;15293505;19;20017;-78
2024/03/19 08:31:45;;;;;;;2.15;1.75;;;;;;;6.12;100.00;98728.63;15293994;19;20014;-78
2024/03/19 08:37:12;;;;;;;3.45;2.05;;;;;;;6.31;100.00;98728.84;15295259;19;20029;-78
2024/03/19 08:42:36;;;;;;;1.80;1.63;;;;;;;6.53;100.00;98727.03;15302706;19;20029;-79
2024/03/19 08:48:00;;;;;;;1.88;1.58;;;;;;;6.77;100.00;98728.66;15293926;19;20035;-79
2024/03/19 08:53:28;;;;;;;1.65;1.50;;;;;;;7.03;100.00;98728.28;15293921;19;20014;-79
2024/03/19 08:58:52;;;;;;;1.83;1.60;;;;;;;7.22;100.00;98732.91;15295228;19;20074;-79
2024/03/19 09:04:16;;;;;;;2.97;1.50;;;;;;;7.46;100.00;98737.94;15301547;19;20023;-78
2024/03/19 09:09:44;;;;;;;2.38;1.63;;;;;;;7.70;100.00;98737.63;15296966;19;20019;-78
2024/03/19 09:15:11;;;;;;;1.50;1.40;;;;;;;7.89;100.00;98741.38;15296946;19;20514;-78
2024/03/19 09:20:35;;;;;;;2.60;1.70;;;;;;;8.00;100.00;98745.75;15299772;19;20106;-79
2024/03/19 09:26:02;;;;;;;1.67;1.58;;;;;;;8.15;100.00;98733.66;15295998;19;20055;-79
2024/03/19 09:31:26;;;;;;;1.85;1.70;;;;;;;8.37;100.00;98741.63;15306388;19;20014;-79
2024/03/19 09:36:51;;;;;;;2.63;1.73;;;;;;;8.55;100.00;98739.97;15303262;19;20101;-79
2024/03/19 09:42:18;;;;;;;2.63;1.70;;;;;;;8.71;100.00;98725.13;15304208;19;20030;-78
2024/03/19 09:47:43;;;;;;;3.03;1.90;;;;;;;8.89;100.00;98728.78;15291457;19;20011;-79
2024/03/19 09:53:06;;;;;;;2.05;1.80;;;;;;;9.02;100.00;98727.63;15299698;19;20018;-78
2024/03/19 09:58:34;;;;;;;2.72;1.60;;;;;;;9.23;100.00;98731.00;15296018;19;20074;-79
2024/03/19 10:03:58;;;;;;;2.35;1.70;;;;;;;9.37;100.00;98736.91;15296659;19;20042;-78
2024/03/19 10:09:23;;;;;;;3.03;1.88;;;;;;;9.51;100.00;98732.91;15291202;19;20022;-79
2024/03/19 10:14:50;;;;;;;4.18;1.70;;;;;;;9.65;100.00;98743.19;15292946;19;20014;-80
2024/03/19 10:20:15;;;;;;;2.90;1.60;;;;;;;9.78;100.00;98742.00;15294599;19;20811;-78
2024/03/19 10:25:39;;;;;;;4.53;2.05;;;;;;;9.96;100.00;98736.66;15292530;19;20014;-79
2024/03/19 10:31:07;;;;;;;3.88;2.10;;;;;;;10.10;100.00;98744.25;15291396;19;20037;-79
2024/03/19 10:36:32;;;;;;;3.85;2.13;;;;;;;10.15;100.00;98730.34;15294254;19;20040;-79
2024/03/19 10:42:03;;;;;;;3.83;2.22;;;;;;;10.22;100.00;98731.44;15318528;19;20015;-79
2024/03/19 10:47:36;;;;;;;2.85;2.00;;;;;;;10.31;100.00;98732.34;15366828;19;20006;-79
2024/03/19 10:53:13;;;;;;;4.22;2.08;;;;;;;10.45;100.00;98733.72;15307765;19;20007;-80
2024/03/19 10:58:39;;;;;;;2.42;1.88;;;;;;;10.60;100.00;98726.78;15285940;19;20051;-79
2024/03/19 11:04:05;;;;;;;2.47;1.80;;;;;;;10.76;100.00;98725.25;15293958;19;20044;-80
2024/03/19 11:09:31;;;;;;;2.10;1.90;;;;;;;10.92;100.00;98716.44;15284183;19;20039;-78
2024/03/19 11:15:03;;;;;;;4.20;1.95;;;;;;;11.14;100.00;98712.41;15287764;19;20430;-77
2024/03/19 11:20:35;;;;;;;4.03;2.00;;;;;;;11.28;100.00;98702.06;15301167;19;20022;-78
2024/03/19 11:25:59;;;;;;;2.20;2.00;;;;;;;11.37;100.00;98709.19;15294402;19;20389;-77
2024/03/19 11:31:23;;;;;;;4.68;1.83;;;;;;;11.64;100.00;98710.84;15290704;19;20017;-78
2024/03/19 11:36:54;;;;;;;2.60;1.92;;;;;;;11.82;100.00;98716.16;15296155;19;20006;-78
2024/03/19 11:42:18;;;;;;;2.15;1.80;;;;;;;11.86;100.00;98709.44;15306838;19;20369;-79
2024/03/19 11:47:44;;;;;;;3.63;1.90;;;;;;;11.92;100.00;98701.69;15042008;19;5002119;-79
2024/03/19 11:53:18;;;;;;;2.53;1.80;;;;;;;11.96;100.00;98701.19;15305608;19;20052;-81
2024/03/19 11:58:48;;;;;;;2.38;1.92;;;;;;;12.06;100.00;98692.13;15303159;19;20341;-80
2024/03/19 12:04:14;;;;;;;5.65;2.10;;;;;;;12.31;100.00;98707.41;15301953;19;20006;-80
2024/03/19 12:09:40;;;;;;;2.53;2.00;;;;;;;12.42;100.00;98703.56;15295906;19;20010;-81
2024/03/19 12:15:04;;;;;;;3.50;1.80;;;;;;;12.62;100.00;98697.81;15301197;19;20066;-81
2024/03/19 12:20:29;;;;;;;2.13;1.70;;;;;;;12.79;100.00;98694.13;15304731;19;20377;-78
2024/03/19 12:25:56;;;;;;;4.53;2.10;;;;;;;13.07;100.00;98685.66;15305039;19;20025;-78
2024/03/19 12:31:24;;;;;;;2.60;2.00;;;;;;;13.29;100.00;98683.25;15298416;19;20384;-80
2024/03/19 12:36:48;;;;;;;3.13;1.80;;;;;;;13.42;100.00;98671.94;15289257;19;20043;-80
2024/03/19 12:42:18;;;;;;;2.88;1.80;;;;;;;13.84;100.00;98676.16;15302016;19;20029;-83
2024/03/19 12:47:43;;;;;;;2.35;1.80;;;;;;;14.23;100.00;98679.00;15297642;19;20026;-79
2024/03/19 12:53:06;;;;;;;3.55;1.92;;;;;;;14.49;100.00;98674.09;15301245;19;20007;-80
2024/03/19 12:58:33;;;;;;;2.00;1.90;;;;;;;14.72;100.00;98662.44;15309042;19;20466;-79
2024/03/19 13:03:56;;;;;;;3.40;1.90;;;;;;;14.76;100.00;98663.75;15306358;19;20014;-83
2024/03/19 13:09:23;;;;;;;2.72;2.08;;;;;;;15.00;100.00;98659.13;15294589;19;20089;-82
2024/03/19 13:14:49;;;;;;;2.33;1.98;;;;;;;15.17;100.00;98657.09;15300973;19;20022;-80
2024/03/19 13:20:14;;;;;;;3.90;1.95;;;;;;;15.42;100.00;98659.53;15305706;19;20018;-82
2024/03/19 13:25:38;;;;;;;2.13;1.90;;;;;;;15.46;100.00;98658.16;15310313;19;20031;-81
2024/03/19 13:31:06;;;;;;;3.38;2.22;;;;;;;15.61;100.00;98660.03;15316173;19;20014;-82
2024/03/19 13:36:31;;;;;;;2.17;1.98;;;;;;;15.71;100.00;98655.97;15305211;19;20010;-82
2024/03/19 13:41:57;;;;;;;2.38;2.00;;;;;;;15.91;100.00;98662.72;15313445;19;20025;-81
2024/03/19 13:47:24;;;;;;;2.45;1.80;;;;;;;15.97;100.00;98656.56;15291386;19;20010;-83
2024/03/19 13:52:48;;;;;;;1.85;1.65;;;;;;;16.08;100.00;98658.78;15298230;19;20483;-82
2024/03/19 13:58:12;;;;;;;2.35;1.95;;;;;;;15.71;100.00;98660.59;15291602;19;20400;-85
2024/03/19 14:03:41;;;;;;;4.97;1.98;;;;;;;15.71;100.00;98661.41;15301180;19;20014;-83
2024/03/19 14:09:05;;;;;;;3.78;2.08;;;;;;;15.98;100.00;98656.34;15295424;19;20095;-83
2024/03/19 14:14:33;;;;;;;2.53;1.92;;;;;;;16.24;100.00;98644.09;15302767;19;20090;-82
2024/03/19 14:19:59;;;;;;;3.13;1.92;;;;;;;16.26;100.00;98649.34;15301528;19;20026;-84
2024/03/19 14:25:23;;;;;;;2.72;2.10;;;;;;;16.35;96.54;98664.50;15299937;19;20025;-80
2024/03/19 14:30:52;;;;;;;2.20;2.00;;;;;;;16.49;99.69;98660.06;15347662;19;20021;-78
2024/03/19 14:36:19;;;;;;;3.00;2.10;;;;;;;16.02;100.00;98652.22;15296465;19;20082;-81
2024/03/19 14:41:42;;;;;;;3.40;2.10;;;;;;;16.29;99.99;98651.69;15299507;19;20018;-79
2024/03/19 14:47:07;;;;;;;2.10;1.90;;;;;;;16.57;96.19;98657.19;15339136;19;20015;-78
2024/03/19 14:52:33;;;;;;;2.55;2.03;;;;;;;16.89;96.25;98657.69;15328721;19;20026;-81
2024/03/19 14:57:57;;;;;;;4.45;2.05;;;;;;;17.03;94.23;98652.38;15322222;19;20026;-82
2024/03/19 15:03:21;;;;;;;3.28;1.90;;;;;;;17.03;95.10;98658.69;15339045;19;20022;-81
2024/03/19 15:08:50;;;;;;;2.33;2.03;;;;;;;16.94;94.94;98655.25;15321854;19;20039;-80
2024/03/19 15:14:15;;;;;;;3.03;2.08;;;;;;;16.94;95.55;98647.09;15322917;19;20476;-80
2024/03/19 15:19:41;;;;;;;2.67;2.10;;;;;;;16.84;95.60;98643.84;15302633;19;20102;-80
2024/03/19 15:25:07;;;;;;;2.72;2.30;;;;;;;16.58;97.92;98656.16;15301288;19;20014;-79
2024/03/19 15:30:32;;;;;;;2.75;2.28;;;;;;;16.20;100.00;98656.38;15281532;19;20472;-78
2024/03/19 15:35:55;;;;;;;3.35;2.35;;;;;;;15.82;100.00;98651.94;15299053;19;20014;-80
2024/03/19 15:41:25;;;;;;;2.88;2.35;;;;;;;15.52;100.00;98640.28;15310784;19;20078;-79
2024/03/19 15:46:48;;;;;;;2.25;2.03;;;;;;;15.41;100.00;98634.28;15308912;19;20631;-81
2024/03/19 15:52:12;;;;;;;3.05;2.10;;;;;;;15.54;100.00;98638.22;15300172;19;20014;-78
2024/03/19 15:57:39;;;;;;;2.35;2.13;;;;;;;15.53;100.00;98640.06;15306866;19;20014;-79
2024/03/19 16:03:03;;;;;;;3.92;2.20;;;;;;;15.49;100.00;98629.78;15303430;19;20007;-77
2024/03/19 16:08:28;;;;;;;4.25;2.20;;;;;;;15.48;100.00;98628.09;15302278;19;20018;-78
2024/03/19 16:13:55;;;;;;;3.80;2.10;;;;;;;15.64;100.00;98638.75;15294191;19;20025;-80
2024/03/19 16:19:18;;;;;;;4.68;1.80;;;;;;;15.57;100.00;98637.84;15297246;19;20417;-78
2024/03/19 16:24:42;;;;;;;2.50;1.98;;;;;;;15.31;100.00;98635.56;15291757;19;20074;-78
2024/03/19 16:30:10;;;;;;;4.35;2.20;;;;;;;15.08;100.00;98637.34;15285297;19;20017;-78
2024/03/19 16:35:34;;;;;;;4.88;2.00;;;;;;;14.93;100.00;98644.63;15286596;19;20015;-79
2024/03/19 16:40:58;;;;;;;3.40;2.22;;;;;;;14.82;100.00;98647.78;15311552;19;20014;-78
2024/03/19 16:46:25;;;;;;;2.60;1.90;;;;;;;14.73;100.00;98650.56;15307679;19;20010;-79
2024/03/19 16:51:49;;;;;;;1.80;1.70;;;;;;;14.48;100.00;98655.28;15300715;19;21948;-80
2024/03/19 16:57:14;;;;;;;2.25;2.05;;;;;;;14.10;100.00;98652.50;15299411;19;20014;-79
2024/03/19 17:02:41;;;;;;;2.85;1.92;;;;;;;13.79;100.00;98662.31;15304956;19;20014;-79
2024/03/19 17:08:07;;;;;;;2.20;2.00;;;;;;;13.55;100.00;98655.97;15303820;19;20014;-80
2024/03/19 17:13:30;;;;;;;3.78;2.08;;;;;;;13.26;100.00;98667.38;15296469;19;20056;-81
2024/03/19 17:18:57;;;;;;;4.68;2.13;;;;;;;12.85;100.00;98673.69;15287909;19;20010;-80
2024/03/19 17:24:22;;;;;;;4.10;2.00;;;;;;;12.49;100.00;98680.25;15298432;19;20746;-79
2024/03/19 17:29:46;;;;;;;3.75;2.00;;;;;;;12.15;100.00;98675.78;15293564;19;20571;-78
2024/03/19 17:35:13;;;;;;;4.38;2.08;;;;;;;11.84;100.00;98687.16;15298348;19;20030;-77
2024/03/19 17:40:40;;;;;;;4.45;1.90;;;;;;;11.53;100.00;98686.84;15303019;19;20030;-76
2024/03/19 17:46:04;;;;;;;5.45;2.00;;;;;;;11.22;100.00;98696.28;15247012;19;20022;-79
2024/03/19 17:51:31;;;;;;;2.58;1.80;;;;;;;11.00;100.00;98700.34;15300781;19;20011;-77
2024/03/19 17:57:01;;;;;;;2.75;1.70;;;;;;;10.82;100.00;98711.16;15299452;19;20021;-77
2024/03/19 18:02:27;;;;;;;4.03;1.83;;;;;;;10.62;100.00;98718.56;15288645;19;20028;-81
2024/03/19 18:07:54;;;;;;;4.38;1.88;;;;;;;10.45;100.00;98729.19;15284940;19;20018;-82
2024/03/19 18:13:18;;;;;;;3.05;1.73;;;;;;;10.32;100.00;98744.81;15311307;19;20015;-78
2024/03/19 18:18:44;;;;;;;1.92;1.80;;;;;;;10.21;100.00;98745.91;15341652;19;20014;-82
2024/03/19 18:24:11;;;;;;;4.85;1.85;;;;;;;10.09;100.00;98747.09;15290844;19;20029;-81
2024/03/19 18:29:36;;;;;;;2.78;1.60;;;;;;;9.99;100.00;98741.75;15262926;19;20468;-82
2024/03/19 18:35:00;;;;;;;4.05;1.67;;;;;;;9.89;100.00;98749.03;15297787;19;20370;-81
2024/03/19 18:40:26;;;;;;;2.15;1.70;;;;;;;9.78;100.00;98744.69;15301383;19;20357;-79
2024/03/19 18:45:51;;;;;;;2.58;1.80;;;;;;;9.71;100.00;98750.69;15294362;19;20484;-77
2024/03/19 18:51:14;;;;;;;4.13;1.60;;;;;;;9.67;100.00;98740.34;15048042;19;5002185;-81
2024/03/19 19:02:25;;;;;;;3.83;1.60;;;;;;;9.47;100.00;98732.34;15370512;19;20033;-82
2024/03/19 19:07:49;;;;;;;3.17;1.73;;;;;;;9.40;100.00;98744.69;15329067;19;20018;-80
2024/03/19 19:13:13;;;;;;;2.33;1.52;;;;;;;9.35;100.00;98749.66;15322077;19;20050;-79
2024/03/19 19:18:41;;;;;;;1.88;1.67;;;;;;;9.32;100.00;98747.25;15314189;19;20074;-76
2024/03/19 19:24:06;;;;;;;4.32;1.90;;;;;;;9.29;100.00;98755.59;15284967;19;20012;-79
2024/03/19 19:29:31;;;;;;;3.42;1.83;;;;;;;9.24;100.00;98754.19;15318448;19;20014;-79
2024/03/19 19:34:57;;;;;;;3.00;2.15;;;;;;;9.20;100.00;98757.31;15310547;19;20015;-77
2024/03/19 19:40:21;;;;;;;2.10;1.90;;;;;;;9.17;100.00;98768.38;15317413;19;20403;-81
2024/03/19 19:45:44;;;;;;;4.85;1.95;;;;;;;9.16;100.00;98767.53;15314722;19;20868;-82
2024/03/19 19:51:11;;;;;;;2.33;1.80;;;;;;;9.14;100.00;98769.50;15308890;19;20019;-81
2024/03/19 19:56:43;;;;;;;3.90;1.80;;;;;;;9.09;100.00;98769.09;15310212;19;20017;-79
2024/03/19 20:02:08;;;;;;;4.10;1.80;;;;;;;9.00;100.00;98769.94;15298083;19;20010;-79
2024/03/19 20:07:35;;;;;;;2.28;1.83;;;;;;;8.87;100.00;98768.41;15032118;19;5000908;-75
2024/03/19 20:12:59;;;;;;;3.92;1.92;;;;;;;8.76;100.00;98774.75;15293161;19;20630;-73
2024/03/19 20:18:22;;;;;;;4.03;1.90;;;;;;;8.75;100.00;98764.16;15295180;19;20131;-74
2024/03/19 20:23:49;;;;;;;3.85;1.80;;;;;;;8.74;100.00;98765.16;15284286;19;20041;-72
2024/03/19 20:29:13;;;;;;;2.00;1.80;;;;;;;8.69;100.00;98770.94;15293261;19;20011;-74
2024/03/19 20:34:38;;;;;;;2.67;1.80;;;;;;;8.71;100.00;98773.47;15289309;19;20016;-73
2024/03/19 20:40:07;;;;;;;3.25;2.00;;;;;;;8.74;100.00;98768.66;15286277;19;20002;-73
2024/03/19 20:45:31;;;;;;;3.58;1.95;;;;;;;8.78;100.00;98775.47;15289521;19;20017;-74
2024/03/19 20:50:54;;;;;;;4.70;2.10;;;;;;;8.81;100.00;98762.75;15283474;19;20086;-74
2024/03/19 20:56:21;;;;;;;3.42;2.08;;;;;;;8.77;100.00;98762.16;15281011;19;20019;-74
2024/03/19 21:01:45;;;;;;;3.65;1.90;;;;;;;8.74;100.00;98767.84;15286127;19;20070;-73
2024/03/19 21:07:09;;;;;;;4.07;1.90;;;;;;;8.64;100.00;98757.09;15282076;19;20086;-74
2024/03/19 21:12:35;;;;;;;2.72;2.17;;;;;;;8.55;100.00;98758.75;15276960;19;20021;-73
2024/03/19 21:18:00;;;;;;;2.75;1.80;;;;;;;8.46;100.00;98759.56;15284902;19;20019;-73
2024/03/19 21:23:23;;;;;;;2.92;1.83;;;;;;;8.40;100.00;98760.97;15286547;19;20010;-73
2024/03/19 21:28:50;;;;;;;2.50;1.90;;;;;;;8.33;100.00;98765.22;15281996;19;20485;-73
2024/03/19 21:34:13;;;;;;;2.30;2.10;;;;;;;8.29;100.00;98759.25;15286736;19;20024;-73
2024/03/19 21:39:37;;;;;;;2.17;1.85;;;;;;;8.29;100.00;98759.25;15286948;19;20018;-73
2024/03/19 21:45:05;;;;;;;4.65;2.17;;;;;;;8.30;100.00;98762.81;15277380;19;20014;-72
2024/03/19 21:50:29;;;;;;;3.78;2.05;;;;;;;8.30;100.00;98749.38;15278723;19;20632;-72
2024/03/19 21:56:00;;;;;;;2.65;2.08;;;;;;;8.27;100.00;98761.25;15276953;19;20025;-73
2024/03/19 22:01:27;;;;;;;4.20;2.57;;;;;;;8.10;100.00;98756.53;15277863;19;20033;-73
2024/03/19 22:06:50;;;;;;;3.20;2.13;;;;;;;7.87;100.00;98754.06;15280186;19;20485;-73
2024/03/19 22:12:14;;;;;;;2.63;2.13;;;;;;;7.72;100.00;98761.63;15273979;19;20489;-73
2024/03/19 22:17:40;;;;;;;3.65;2.38;;;;;;;7.62;100.00;98760.75;15278050;19;20006;-73
2024/03/19 22:23:04;;;;;;;3.53;2.03;;;;;;;7.56;100.00;98762.97;15283435;19;20029;-73
2024/03/19 22:28:28;;;;;;;3.08;2.20;;;;;;;7.65;100.00;98757.78;15286951;19;20364;-73
2024/03/19 22:33:55;;;;;;;2.60;2.33;;;;;;;7.76;100.00;98752.31;15282173;19;20511;-73
2024/03/19 22:39:37;;;;;;;4.32;2.20;;;;;;;7.67;100.00;98745.97;15279668;19;20011;-73
2024/03/19 22:45:01;;;;;;;3.38;2.50;;;;;;;7.43;100.00;98740.06;15274763;19;20018;-73
2024/03/19 22:50:27;;;;;;;3.58;2.90;;;;;;;7.23;100.00;98739.97;15272110;19;20049;-73
2024/03/19 22:55:52;;;;;;;4.10;2.90;;;;;;;6.97;100.00;98735.00;15282306;19;20026;-73
2024/03/19 23:01:16;;;;;;;8.57;2.42;;;;;;;6.82;100.00;98725.56;15278960;19;20017;-74
2024/03/19 23:06:43;;;;;;;2.75;2.40;;;;;;;6.76;100.00;98724.25;15271903;19;20038;-74
2024/03/19 23:12:06;;;;;;;2.85;2.40;;;;;;;6.78;100.00;98731.19;15285883;19;20021;-74
2024/03/19 23:17:30;;;;;;;3.15;2.40;;;;;;;6.94;100.00;98735.25;15089805;19;5001528;-74
2024/03/19 23:22:56;;;;;;;3.97;2.33;;;;;;;7.06;100.00;98734.22;15300984;19;20098;-74
2024/03/19 23:28:20;;;;;;;3.50;2.40;;;;;;;7.13;100.00;98730.97;15289851;19;20469;-74
2024/03/19 23:33:43;;;;;;;2.75;2.55;;;;;;;7.13;100.00;98722.94;15290666;19;20255;-74
2024/03/19 23:39:11;;;;;;;3.58;2.78;;;;;;;7.07;100.00;98725.19;15292312;19;20356;-74
2024/03/19 23:44:35;;;;;;;3.40;2.75;;;;;;;7.00;100.00;98728.53;15293403;19;20024;-74
2024/03/19 23:49:59;;;;;;;3.53;2.92;;;;;;;6.89;100.00;98724.94;15284352;19;20019;-74
2024/03/19 23:55:25;;;;;;;3.28;2.92;;;;;;;6.84;100.00;98726.31;15285822;19;20018;-74
